Time;durP1;ratioP1;P1;durP2;ratioP2;P2;SDS_P1;SDS_P2;PMS_P1;PMS_P2;Temp;Humidity;BMP_temperature;BMP_pressure;BME280_temperature;BME280_humidity;BME280_pressure;Samples;Min_cycle;Max_cycle;Signal;HPM_P1;HPM_P2
2023/08/04 00:01:21;;;;;;;10.60;3.50;;;18.50;99.90;;;;;;5053208;28;20032;-60
2023/08/04 00:03:47;;;;;;;12.75;3.53;;;18.30;99.90;;;;;;5053582;28;20032;-60
2023/08/04 00:06:12;;;;;;;11.88;3.50;;;18.20;99.90;;;;;;5053363;28;20394;-60
2023/08/04 00:08:38;;;;;;;12.00;3.53;;;18.10;99.90;;;;;;5053378;28;20021;-61
2023/08/04 00:11:04;;;;;;;17.38;4.20;;;18.10;99.90;;;;;;5053417;28;20086;-61
2023/08/04 00:13:33;;;;;;;12.43;3.70;;;18.20;99.90;;;;;;5053133;28;20604;-61
2023/08/04 00:16:09;;;;;;;15.50;4.55;;;18.20;99.90;;;;;;5052744;28;20021;-61
2023/08/04 00:18:35;;;;;;;12.77;3.60;;;18.10;99.90;;;;;;5053318;28;20021;-60
2023/08/04 00:21:01;;;;;;;13.27;4.20;;;18.00;99.90;;;;;;5053615;28;20033;-60
2023/08/04 00:23:27;;;;;;;15.85;4.13;;;18.20;99.90;;;;;;5053138;28;20108;-60
2023/08/04 00:25:53;;;;;;;11.70;3.15;;;18.10;99.90;;;;;;5052999;28;20084;-61
2023/08/04 00:28:19;;;;;;;15.18;3.85;;;18.00;99.90;;;;;;5053311;28;20036;-61
2023/08/04 00:30:45;;;;;;;13.85;3.75;;;17.90;99.90;;;;;;5052680;28;20076;-61
2023/08/04 00:33:10;;;;;;;11.02;3.40;;;17.90;99.90;;;;;;5052942;28;20105;-60
2023/08/04 00:35:36;;;;;;;12.13;3.72;;;18.00;99.90;;;;;;5051588;28;20060;-60
2023/08/04 00:38:02;;;;;;;14.82;4.05;;;18.00;99.90;;;;;;5052916;28;20033;-60
2023/08/04 00:40:30;;;;;;;17.77;4.05;;;18.00;99.90;;;;;;5053152;28;20029;-60
2023/08/04 00:42:56;;;;;;;12.32;3.50;;;18.00;99.90;;;;;;5052599;28;20013;-61
2023/08/04 00:45:25;;;;;;;13.43;3.67;;;18.10;99.90;;;;;;5052475;28;20401;-60
2023/08/04 00:47:52;;;;;;;14.75;4.07;;;18.30;99.90;;;;;;5052562;28;20029;-60
2023/08/04 00:50:19;;;;;;;12.70;3.90;;;18.50;99.90;;;;;;5052739;28;20029;-60
2023/08/04 00:52:46;;;;;;;14.02;4.38;;;18.60;99.90;;;;;;5052531;28;20025;-60
2023/08/04 00:55:13;;;;;;;12.95;3.78;;;18.60;99.90;;;;;;5052857;28;20458;-61
2023/08/04 00:57:39;;;;;;;15.38;3.90;;;18.70;99.90;;;;;;5052110;28;20107;-60
2023/08/04 01:00:06;;;;;;;12.73;3.67;;;18.70;99.90;;;;;;5052599;28;20064;-60
2023/08/04 01:02:33;;;;;;;13.35;3.83;;;18.80;99.90;;;;;;5052603;28;20032;-60
2023/08/04 01:05:03;;;;;;;14.95;3.97;;;18.80;99.90;;;;;;5052449;28;20024;-60
2023/08/04 01:07:35;;;;;;;14.80;4.00;;;18.80;99.90;;;;;;5052296;28;20029;-60
2023/08/04 01:10:18;;;;;;;13.80;3.47;;;18.80;99.90;;;;;;5052491;28;20040;-59
2023/08/04 01:12:55;;;;;;;15.07;4.00;;;18.90;99.90;;;;;;5052504;28;20013;-60
2023/08/04 01:15:24;;;;;;;12.73;4.10;;;18.90;99.90;;;;;;5051667;28;20048;-60
2023/08/04 01:17:49;;;;;;;12.35;4.50;;;18.70;99.90;;;;;;5052094;28;20036;-60
2023/08/04 01:20:15;;;;;;;15.90;4.28;;;18.70;99.90;;;;;;5052210;28;20402;-60
2023/08/04 01:22:41;;;;;;;15.77;4.20;;;18.60;99.90;;;;;;5052001;28;20025;-60
2023/08/04 01:25:07;;;;;;;14.80;3.65;;;18.50;99.90;;;;;;5051804;28;20411;-60
2023/08/04 01:27:42;;;;;;;14.63;3.72;;;18.30;99.90;;;;;;5049956;28;20031;-61
2023/08/04 01:30:15;;;;;;;11.55;3.63;;;18.30;99.90;;;;;;5051488;28;20519;-61
2023/08/04 01:32:40;;;;;;;12.52;3.83;;;18.30;99.90;;;;;;5051956;28;20025;-60
2023/08/04 01:35:08;;;;;;;14.45;3.33;;;18.30;99.90;;;;;;5051814;28;20057;-60
2023/08/04 01:37:33;;;;;;;13.80;3.65;;;18.20;99.90;;;;;;5051734;28;20557;-60
2023/08/04 01:39:59;;;;;;;15.38;3.97;;;18.30;99.90;;;;;;5051654;28;20112;-61
2023/08/04 01:42:25;;;;;;;14.20;4.28;;;18.20;99.90;;;;;;5051514;28;20031;-61
2023/08/04 01:44:50;;;;;;;13.93;3.65;;;18.20;99.90;;;;;;5051633;28;20043;-61
2023/08/04 01:47:16;;;;;;;13.57;3.92;;;18.20;99.90;;;;;;5051615;28;20425;-61
2023/08/04 01:49:42;;;;;;;12.05;4.00;;;18.10;99.90;;;;;;5051584;28;20104;-61
2023/08/04 01:52:07;;;;;;;12.55;3.70;;;18.10;99.90;;;;;;5051551;28;20564;-61
2023/08/04 01:54:33;;;;;;;12.68;3.80;;;18.00;99.90;;;;;;5051619;28;20486;-61
2023/08/04 01:56:59;;;;;;;18.27;3.83;;;18.10;99.90;;;;;;5051351;28;20071;-61
2023/08/04 01:59:24;;;;;;;15.85;3.90;;;18.00;99.90;;;;;;5051058;28;20040;-61
2023/08/04 02:01:50;;;;;;;14.82;4.22;;;18.00;99.90;;;;;;5050627;28;20017;-61
2023/08/04 02:04:16;;;;;;;13.35;4.22;;;18.10;99.90;;;;;;5051248;28;20033;-61
2023/08/04 02:06:41;;;;;;;14.57;4.05;;;18.40;99.90;;;;;;5051273;28;20063;-60
2023/08/04 02:09:07;;;;;;;13.05;4.07;;;18.40;99.90;;;;;;5051233;28;20048;-61
2023/08/04 02:11:33;;;;;;;12.43;4.22;;;18.60;99.90;;;;;;5051615;28;20067;-61
2023/08/04 02:13:59;;;;;;;14.32;3.95;;;18.60;99.90;;;;;;5050417;28;20033;-60
2023/08/04 02:16:25;;;;;;;12.93;3.58;;;18.50;99.90;;;;;;5051380;28;20013;-60
2023/08/04 02:18:50;;;;;;;12.40;3.88;;;18.60;99.90;;;;;;5051256;28;20029;-60
2023/08/04 02:21:16;;;;;;;11.07;3.47;;;18.60;99.90;;;;;;5051122;28;20029;-61
2023/08/04 02:23:42;;;;;;;13.85;3.53;;;18.60;99.90;;;;;;5050813;28;20538;-60
2023/08/04 02:26:07;;;;;;;13.20;3.60;;;18.70;99.90;;;;;;5051102;28;20037;-61
2023/08/04 02:28:33;;;;;;;13.25;3.60;;;18.70;99.90;;;;;;5051170;28;20115;-61
2023/08/04 02:30:59;;;;;;;13.32;4.00;;;18.60;99.90;;;;;;5050783;28;20029;-61
2023/08/04 02:33:25;;;;;;;14.05;3.60;;;18.60;99.90;;;;;;5050855;28;20482;-61
2023/08/04 02:35:59;;;;;;;10.48;3.72;;;18.40;99.90;;;;;;5051342;28;20070;-61
2023/08/04 02:38:24;;;;;;;13.73;3.67;;;18.40;99.90;;;;;;5052002;28;20029;-61
2023/08/04 02:40:50;;;;;;;12.73;3.72;;;18.30;99.90;;;;;;5054778;28;20497;-60
2023/08/04 02:43:16;;;;;;;13.45;3.72;;;18.30;99.90;;;;;;5055175;28;20021;-61
2023/08/04 02:45:51;;;;;;;13.38;4.30;;;18.20;99.90;;;;;;5054999;28;20036;-60
2023/08/04 02:48:17;;;;;;;12.15;3.75;;;18.10;99.90;;;;;;5054992;28;20025;-60
2023/08/04 02:50:43;;;;;;;13.00;3.70;;;18.00;99.90;;;;;;5055071;28;20163;-60
2023/08/04 02:53:09;;;;;;;13.63;3.67;;;18.00;99.90;;;;;;5055033;28;20086;-60
2023/08/04 02:55:34;;;;;;;14.48;3.50;;;18.00;99.90;;;;;;5054566;28;20108;-60
2023/08/04 02:58:00;;;;;;;13.35;3.63;;;18.10;99.90;;;;;;5054897;28;20025;-61
2023/08/04 03:00:26;;;;;;;14.95;3.72;;;18.10;99.90;;;;;;5054584;28;20505;-61
2023/08/04 03:02:52;;;;;;;11.43;3.13;;;18.10;99.90;;;;;;5054665;28;20029;-60
2023/08/04 03:05:17;;;;;;;12.48;3.35;;;18.20;99.90;;;;;;5054993;28;20047;-60
2023/08/04 03:07:43;;;;;;;11.60;3.08;;;18.20;99.90;;;;;;5053261;28;20025;-61
2023/08/04 03:10:09;;;;;;;11.63;3.47;;;18.10;99.90;;;;;;5054143;28;20112;-60
2023/08/04 03:12:34;;;;;;;8.55;3.30;;;18.00;99.90;;;;;;5054845;28;20045;-60
2023/08/04 03:15:00;;;;;;;10.82;3.22;;;18.00;99.90;;;;;;5054286;28;20394;-60
2023/08/04 03:17:26;;;;;;;11.38;3.38;;;18.10;99.90;;;;;;5054328;28;20099;-61
2023/08/04 03:19:52;;;;;;;11.05;3.38;;;18.20;99.90;;;;;;5054092;28;20048;-61
2023/08/04 03:22:17;;;;;;;9.00;3.42;;;18.40;99.90;;;;;;5054619;28;20436;-60
2023/08/04 03:24:43;;;;;;;10.25;3.33;;;18.50;99.90;;;;;;5053704;28;20496;-60
2023/08/04 03:27:09;;;;;;;11.32;3.35;;;18.60;99.90;;;;;;5054312;28;20035;-60
2023/08/04 03:29:34;;;;;;;11.93;3.35;;;18.60;99.90;;;;;;5054158;28;20029;-60
2023/08/04 03:32:00;;;;;;;9.45;3.20;;;18.70;99.90;;;;;;5054475;28;20021;-61
2023/08/04 03:34:25;;;;;;;12.48;3.63;;;18.70;99.90;;;;;;5054080;28;20069;-60
2023/08/04 03:36:51;;;;;;;11.70;3.70;;;18.70;99.90;;;;;;5053795;28;20025;-60
2023/08/04 03:39:17;;;;;;;12.65;3.53;;;18.70;99.90;;;;;;5053667;28;20032;-60
2023/08/04 03:41:42;;;;;;;9.10;3.13;;;18.80;99.90;;;;;;5053968;28;20037;-60
2023/08/04 03:44:08;;;;;;;12.68;3.95;;;18.80;99.90;;;;;;5053915;28;20025;-61
2023/08/04 03:46:34;;;;;;;12.40;3.40;;;18.80;99.90;;;;;;5054156;28;20064;-61
2023/08/04 03:48:59;;;;;;;15.82;3.88;;;18.80;99.90;;;;;;5053865;28;20028;-60
2023/08/04 03:51:25;;;;;;;11.77;3.60;;;18.70;99.90;;;;;;5053051;28;20417;-60
2023/08/04 03:53:50;;;;;;;10.23;3.50;;;18.50;99.90;;;;;;5053446;28;20021;-60
2023/08/04 03:56:16;;;;;;;12.45;3.58;;;18.50;99.90;;;;;;5053443;28;20510;-61
2023/08/04 03:58:42;;;;;;;10.07;3.40;;;18.40;99.90;;;;;;5053650;28;20461;-60
2023/08/04 04:01:07;;;;;;;9.88;3.03;;;18.40;99.90;;;;;;5053927;28;20041;-60
2023/08/04 04:03:33;;;;;;;10.00;3.40;;;18.30;99.90;;;;;;5053476;28;20389;-61
2023/08/04 04:05:59;;;;;;;13.00;3.80;;;18.20;99.90;;;;;;5053439;28;20037;-61
2023/08/04 04:08:25;;;;;;;9.95;3.38;;;18.20;99.90;;;;;;5053477;28;20052;-61
2023/08/04 04:10:50;;;;;;;11.25;3.50;;;18.20;99.90;;;;;;5053324;28;20036;-61
2023/08/04 04:13:16;;;;;;;9.07;3.20;;;18.20;99.90;;;;;;5053301;28;20100;-61
2023/08/04 04:15:42;;;;;;;13.35;3.72;;;18.20;99.90;;;;;;5053211;28;20039;-61
2023/08/04 04:18:07;;;;;;;10.65;3.45;;;18.20;99.90;;;;;;5053212;28;20020;-61
2023/08/04 04:20:33;;;;;;;8.88;3.13;;;18.10;99.90;;;;;;5053387;28;20383;-61
2023/08/04 04:22:59;;;;;;;10.02;3.30;;;18.10;99.90;;;;;;5052910;28;20486;-61
2023/08/04 04:25:24;;;;;;;11.52;3.83;;;18.00;99.90;;;;;;5052921;28;20132;-61
2023/08/04 04:27:50;;;;;;;9.63;3.60;;;18.00;99.90;;;;;;5053108;28;20025;-60
2023/08/04 04:30:15;;;;;;;9.20;3.13;;;18.10;99.90;;;;;;5051711;28;20033;-60
2023/08/04 04:32:41;;;;;;;9.90;3.60;;;18.10;99.90;;;;;;5052998;28;20017;-60
2023/08/04 04:35:07;;;;;;;8.10;3.45;;;18.10;99.90;;;;;;5052916;28;20506;-61
2023/08/04 04:37:32;;;;;;;9.73;3.08;;;18.00;99.90;;;;;;5052949;28;20490;-60
2023/08/04 04:39:58;;;;;;;12.25;3.25;;;18.20;99.90;;;;;;5052739;28;20044;-61
2023/08/04 04:42:24;;;;;;;11.40;3.25;;;18.40;99.90;;;;;;5053418;28;20024;-60
2023/08/04 04:44:49;;;;;;;10.65;3.42;;;18.50;99.90;;;;;;5052793;28;20067;-60
2023/08/04 04:47:15;;;;;;;12.52;3.42;;;18.70;99.90;;;;;;5052965;28;20025;-60
2023/08/04 04:49:41;;;;;;;12.57;3.55;;;18.70;99.90;;;;;;5052575;28;20541;-60
2023/08/04 04:52:09;;;;;;;11.35;3.30;;;18.80;99.90;;;;;;5052467;28;20016;-60
2023/08/04 04:54:35;;;;;;;11.02;3.33;;;18.90;99.90;;;;;;5052606;28;20032;-60
2023/08/04 04:57:00;;;;;;;8.65;3.28;;;18.90;99.90;;;;;;5052399;28;20029;-60
2023/08/04 04:59:26;;;;;;;10.93;3.60;;;18.90;99.90;;;;;;5051493;28;20117;-61
2023/08/04 05:01:52;;;;;;;13.18;3.60;;;18.90;99.90;;;;;;5051525;28;20028;-60
2023/08/04 05:04:17;;;;;;;13.82;3.35;;;18.90;99.90;;;;;;5052151;28;20037;-60
2023/08/04 05:06:43;;;;;;;11.77;3.60;;;18.80;99.90;;;;;;5051916;28;20029;-61
2023/08/04 05:09:08;;;;;;;11.43;3.38;;;18.80;99.90;;;;;;5052225;28;20029;-61
2023/08/04 05:11:34;;;;;;;10.20;3.22;;;18.60;99.90;;;;;;5052604;28;20099;-60
2023/08/04 05:14:00;;;;;;;10.40;3.05;;;18.60;99.90;;;;;;5052248;28;20025;-61
2023/08/04 05:16:25;;;;;;;10.75;3.53;;;18.40;99.90;;;;;;5052135;28;20429;-61
2023/08/04 05:18:51;;;;;;;11.10;3.20;;;18.50;99.90;;;;;;5051881;28;20075;-61
2023/08/04 05:21:17;;;;;;;10.95;3.53;;;18.40;99.90;;;;;;5051629;28;20037;-61
2023/08/04 05:23:43;;;;;;;9.98;3.25;;;18.40;99.90;;;;;;5052293;28;20033;-60
2023/08/04 05:26:08;;;;;;;9.02;3.30;;;18.30;99.90;;;;;;5051389;28;20036;-60
2023/08/04 05:28:34;;;;;;;8.52;3.30;;;18.30;99.90;;;;;;5051993;28;20028;-61
2023/08/04 05:31:01;;;;;;;9.70;3.40;;;18.40;99.90;;;;;;5051778;28;20025;-61
2023/08/04 05:33:28;;;;;;;11.82;3.65;;;18.30;99.90;;;;;;5052077;28;20032;-61
2023/08/04 05:35:54;;;;;;;11.30;3.35;;;18.40;99.90;;;;;;5051658;28;20029;-61
2023/08/04 05:38:20;;;;;;;13.23;3.40;;;18.40;99.90;;;;;;5051749;28;20036;-61
2023/08/04 05:40:47;;;;;;;12.38;3.60;;;18.40;99.90;;;;;;5051739;28;20033;-61
2023/08/04 05:43:14;;;;;;;12.77;3.45;;;18.30;99.90;;;;;;5051987;28;20021;-61
2023/08/04 05:45:42;;;;;;;8.48;3.40;;;18.40;99.90;;;;;;5051892;28;20028;-60
2023/08/04 05:48:08;;;;;;;14.07;4.43;;;18.30;99.90;;;;;;5051463;28;20032;-61
2023/08/04 05:50:34;;;;;;;8.73;3.25;;;18.40;99.90;;;;;;5051282;28;20393;-61
2023/08/04 05:52:59;;;;;;;10.90;3.65;;;18.30;99.90;;;;;;5051533;28;20106;-60
2023/08/04 05:55:25;;;;;;;11.20;3.90;;;18.30;99.90;;;;;;5051468;28;20056;-61
2023/08/04 05:57:51;;;;;;;10.80;3.65;;;18.50;99.90;;;;;;5051762;28;20025;-60
2023/08/04 06:00:18;;;;;;;10.07;3.88;;;18.70;99.90;;;;;;5051284;28;20067;-60
2023/08/04 06:02:44;;;;;;;11.48;3.55;;;18.90;99.90;;;;;;5051190;28;20039;-60
2023/08/04 06:05:14;;;;;;;10.45;3.53;;;19.00;99.90;;;;;;5051116;28;20029;-61
2023/08/04 06:07:40;;;;;;;10.43;3.30;;;19.10;99.90;;;;;;5051605;28;20112;-61
2023/08/04 06:10:07;;;;;;;10.75;3.70;;;19.20;99.90;;;;;;5051211;28;20027;-60
2023/08/04 06:12:32;;;;;;;11.25;3.58;;;19.10;99.90;;;;;;5051338;28;20482;-60
2023/08/04 06:14:58;;;;;;;11.18;3.80;;;19.20;99.90;;;;;;5050811;28;20032;-61
2023/08/04 06:17:24;;;;;;;10.07;3.47;;;19.30;99.90;;;;;;5051019;28;20498;-60
2023/08/04 06:19:49;;;;;;;13.93;3.70;;;19.30;99.90;;;;;;5050712;28;20033;-61
2023/08/04 06:22:15;;;;;;;11.30;3.47;;;19.30;99.90;;;;;;5051437;28;20029;-61
2023/08/04 06:24:41;;;;;;;11.85;3.67;;;19.20;99.90;;;;;;5051078;28;20056;-61
2023/08/04 06:27:07;;;;;;;11.13;3.58;;;19.30;99.90;;;;;;5051052;28;20025;-61
2023/08/04 06:29:34;;;;;;;11.70;3.33;;;19.00;99.90;;;;;;5051105;28;20021;-61
2023/08/04 06:32:00;;;;;;;9.65;3.28;;;18.90;99.90;;;;;;5051306;28;20401;-61
2023/08/04 06:34:26;;;;;;;8.50;3.15;;;18.80;99.90;;;;;;5050729;28;20429;-60
2023/08/04 06:36:51;;;;;;;10.38;3.08;;;18.80;99.90;;;;;;5050962;28;20051;-60
2023/08/04 06:39:17;;;;;;;8.98;2.50;;;18.80;99.90;;;;;;5051007;28;20021;-60
2023/08/04 06:41:43;;;;;;;8.70;2.95;;;18.80;99.90;;;;;;5051085;28;20064;-61
2023/08/04 06:44:10;;;;;;;11.65;3.30;;;18.70;99.90;;;;;;5050901;28;20111;-61
2023/08/04 06:46:35;;;;;;;7.80;2.28;;;18.80;99.90;;;;;;5050898;28;20501;-61
2023/08/04 06:49:01;;;;;;;7.30;2.33;;;18.70;99.90;;;;;;5050918;28;20103;-61
2023/08/04 06:51:27;;;;;;;6.75;2.40;;;18.60;99.90;;;;;;5050877;28;20405;-61
2023/08/04 06:53:52;;;;;;;6.97;2.65;;;18.60;99.90;;;;;;5050928;28;20109;-61
2023/08/04 06:56:18;;;;;;;5.47;2.20;;;18.70;99.90;;;;;;5051130;28;20033;-61
2023/08/04 06:58:44;;;;;;;4.50;2.00;;;18.60;99.90;;;;;;5050762;28;20032;-61
2023/08/04 07:01:10;;;;;;;6.80;2.25;;;18.60;99.90;;;;;;5050581;28;20559;-61
2023/08/04 07:03:35;;;;;;;5.70;2.00;;;18.70;99.90;;;;;;5050845;28;20393;-61
2023/08/04 07:06:01;;;;;;;6.50;2.60;;;18.70;99.90;;;;;;5050668;28;20055;-61
2023/08/04 07:08:27;;;;;;;6.15;2.45;;;18.60;99.90;;;;;;5050578;28;20052;-61
2023/08/04 07:10:52;;;;;;;6.65;2.30;;;18.60;99.90;;;;;;5050695;28;20099;-60
2023/08/04 07:13:18;;;;;;;5.07;2.20;;;18.70;99.90;;;;;;5050460;28;20032;-61
2023/08/04 07:15:57;;;;;;;6.65;2.47;;;18.80;99.90;;;;;;5050509;28;20028;-61
2023/08/04 07:18:23;;;;;;;7.63;2.60;;;19.10;99.90;;;;;;5050284;28;20025;-61
2023/08/04 07:20:49;;;;;;;7.00;2.50;;;19.20;99.90;;;;;;5050336;28;20090;-61
2023/08/04 07:23:14;;;;;;;10.18;2.80;;;19.30;99.90;;;;;;5050618;28;20450;-60
2023/08/04 07:25:40;;;;;;;7.57;2.72;;;19.40;99.90;;;;;;5051979;28;20132;-61
2023/08/04 07:28:06;;;;;;;6.30;2.20;;;19.50;99.90;;;;;;5054059;28;20021;-61
2023/08/04 07:30:37;;;;;;;6.28;2.13;;;19.50;99.90;;;;;;5054277;28;20075;-60
2023/08/04 07:33:05;;;;;;;7.32;2.78;;;19.50;99.90;;;;;;5053842;28;20017;-61
2023/08/04 07:35:31;;;;;;;6.60;2.30;;;19.60;99.90;;;;;;5053971;28;20024;-60
2023/08/04 07:37:57;;;;;;;7.95;2.53;;;19.60;99.90;;;;;;5054110;28;20051;-60
2023/08/04 07:40:22;;;;;;;6.15;2.25;;;19.70;99.90;;;;;;5053992;28;20064;-60
2023/08/04 07:42:48;;;;;;;9.82;2.28;;;19.70;99.90;;;;;;5053864;28;20040;-61
2023/08/04 07:45:13;;;;;;;7.60;2.67;;;19.60;99.90;;;;;;5052353;28;20036;-61
2023/08/04 07:47:39;;;;;;;8.60;2.70;;;19.50;99.90;;;;;;5054199;28;20029;-60
2023/08/04 07:50:07;;;;;;;7.47;2.40;;;19.30;99.90;;;;;;5053677;28;20160;-61
2023/08/04 07:52:32;;;;;;;7.18;2.45;;;19.20;99.90;;;;;;5053880;28;20036;-61
2023/08/04 07:54:58;;;;;;;9.05;2.70;;;19.10;99.90;;;;;;5054029;28;20402;-61
2023/08/04 07:57:23;;;;;;;9.18;2.67;;;19.10;99.90;;;;;;5053615;28;20047;-61
2023/08/04 07:59:50;;;;;;;8.32;2.83;;;19.10;99.90;;;;;;5053137;28;20139;-61
2023/08/04 08:02:16;;;;;;;7.78;2.90;;;19.10;99.90;;;;;;5053700;28;20433;-61
2023/08/04 08:04:42;;;;;;;6.55;2.58;;;19.10;99.90;;;;;;5053873;28;20025;-61
2023/08/04 08:07:08;;;;;;;7.72;2.70;;;19.10;99.90;;;;;;5053523;28;20025;-61
2023/08/04 08:09:33;;;;;;;7.28;2.95;;;19.10;99.90;;;;;;5053427;28;20037;-61
2023/08/04 08:11:59;;;;;;;9.23;2.78;;;19.20;99.90;;;;;;5053238;28;20035;-60
2023/08/04 08:14:25;;;;;;;8.27;2.55;;;19.20;99.90;;;;;;5053038;28;20039;-61
2023/08/04 08:16:51;;;;;;;6.40;2.70;;;19.10;99.90;;;;;;5053644;28;20029;-60
2023/08/04 08:19:16;;;;;;;7.45;2.60;;;19.00;99.90;;;;;;5053175;28;20574;-61
2023/08/04 08:21:42;;;;;;;8.13;2.67;;;19.00;99.90;;;;;;5052680;28;20382;-61
2023/08/04 08:24:09;;;;;;;11.65;2.80;;;19.00;99.90;;;;;;5053532;28;20158;-61
2023/08/04 08:26:34;;;;;;;9.55;2.92;;;18.90;99.90;;;;;;5053134;28;20048;-61
2023/08/04 08:29:02;;;;;;;8.07;2.42;;;18.90;99.90;;;;;;5052677;28;20529;-60
2023/08/04 08:31:27;;;;;;;8.00;2.42;;;18.90;99.90;;;;;;5053507;28;20417;-60
2023/08/04 08:33:53;;;;;;;9.38;2.50;;;19.00;99.90;;;;;;5053181;28;20029;-61
2023/08/04 08:36:19;;;;;;;8.98;3.30;;;19.30;99.90;;;;;;5052780;28;20498;-61
2023/08/04 08:38:45;;;;;;;7.30;2.35;;;19.50;99.90;;;;;;5052999;28;20024;-61
2023/08/04 08:41:13;;;;;;;8.55;2.60;;;19.80;99.90;;;;;;5052736;28;20090;-61
2023/08/04 08:43:40;;;;;;;6.90;2.65;;;20.00;99.90;;;;;;5052411;28;20159;-61
2023/08/04 08:46:05;;;;;;;7.15;2.28;;;20.10;99.90;;;;;;5052760;28;20482;-61
2023/08/04 08:48:36;;;;;;;6.75;2.42;;;20.10;99.90;;;;;;5051607;28;20036;-61
2023/08/04 08:51:06;;;;;;;6.80;2.38;;;20.00;99.90;;;;;;5053121;28;20090;-60
2023/08/04 08:53:33;;;;;;;7.00;2.40;;;20.10;99.90;;;;;;5052576;28;20025;-61
2023/08/04 08:56:03;;;;;;;7.55;2.30;;;20.00;99.90;;;;;;5052512;28;20036;-61
2023/08/04 08:58:30;;;;;;;6.38;2.20;;;20.10;99.90;;;;;;5052545;28;20021;-61
2023/08/04 09:00:56;;;;;;;8.30;2.35;;;20.00;99.90;;;;;;5052422;28;20111;-60
2023/08/04 09:03:22;;;;;;;5.45;2.22;;;20.10;99.90;;;;;;5052531;28;20056;-61
2023/08/04 09:05:47;;;;;;;7.00;2.28;;;19.90;99.90;;;;;;5052367;28;20518;-61
2023/08/04 09:08:13;;;;;;;6.40;2.30;;;19.90;99.90;;;;;;5052434;28;20025;-61
2023/08/04 09:10:39;;;;;;;5.78;2.22;;;19.80;99.90;;;;;;5052155;28;20040;-61
2023/08/04 09:13:08;;;;;;;4.85;2.30;;;19.80;99.90;;;;;;5052177;28;20032;-61
2023/08/04 09:15:53;;;;;;;6.53;2.50;;;19.70;99.90;;;;;;5052226;28;20021;-61
2023/08/04 09:18:26;;;;;;;6.63;2.40;;;19.80;99.90;;;;;;5051614;28;20445;-61
2023/08/04 09:21:07;;;;;;;7.00;2.50;;;19.70;99.90;;;;;;5051937;28;20056;-61
2023/08/04 09:23:46;;;;;;;5.82;2.10;;;19.70;99.90;;;;;;5052028;28;20102;-63
2023/08/04 09:26:12;;;;;;;6.55;2.40;;;19.80;99.90;;;;;;5051796;28;20426;-61
2023/08/04 09:28:37;;;;;;;7.35;2.50;;;19.80;99.90;;;;;;5052038;28;20032;-61
2023/08/04 09:31:06;;;;;;;6.38;2.30;;;19.80;99.90;;;;;;5052011;28;20067;-61
2023/08/04 09:33:34;;;;;;;5.75;2.35;;;19.80;99.90;;;;;;5051787;28;20033;-61
2023/08/04 09:36:03;;;;;;;6.25;1.90;;;19.70;99.90;;;;;;5051813;28;20431;-61
2023/08/04 09:38:29;;;;;;;6.68;2.40;;;19.70;99.90;;;;;;5052154;28;20032;-61
2023/08/04 09:41:07;;;;;;;6.75;2.20;;;19.90;99.90;;;;;;5051534;28;20041;-61
2023/08/04 09:43:33;;;;;;;4.82;1.90;;;20.00;99.90;;;;;;5051731;28;20021;-61
2023/08/04 09:46:05;;;;;;;8.00;2.42;;;19.90;99.90;;;;;;5051751;28;20100;-61
2023/08/04 09:48:31;;;;;;;6.85;2.22;;;19.90;99.90;;;;;;5051091;28;20528;-61
2023/08/04 09:51:19;;;;;;;4.57;1.98;;;20.20;99.90;;;;;;5051661;28;20029;-61
2023/08/04 09:53:54;;;;;;;4.95;1.95;;;20.40;99.90;;;;;;5051501;28;20058;-61
2023/08/04 09:56:21;;;;;;;5.70;2.03;;;20.50;99.90;;;;;;5051107;28;20033;-61
2023/08/04 09:58:48;;;;;;;5.47;2.05;;;20.70;99.90;;;;;;5051705;28;20375;-61
2023/08/04 10:01:15;;;;;;;5.63;1.90;;;20.80;99.90;;;;;;5051447;28;20040;-61
2023/08/04 10:03:43;;;;;;;5.72;2.10;;;20.70;99.90;;;;;;5051340;28;20029;-61
2023/08/04 10:06:09;;;;;;;4.97;1.70;;;20.70;99.90;;;;;;5051640;28;20043;-62
2023/08/04 10:08:41;;;;;;;4.20;1.75;;;20.70;99.90;;;;;;5049962;28;20029;-61
2023/08/04 10:11:08;;;;;;;3.75;1.65;;;20.90;99.90;;;;;;5050949;28;20619;-61
2023/08/04 10:13:37;;;;;;;7.25;2.30;;;20.90;99.90;;;;;;5051089;28;20029;-61
2023/08/04 10:16:09;;;;;;;6.63;1.90;;;21.00;99.90;;;;;;5051067;28;20021;-61
2023/08/04 10:18:49;;;;;;;6.90;2.10;;;21.00;99.90;;;;;;5051624;28;20109;-62
2023/08/04 10:21:37;;;;;;;3.42;1.83;;;20.80;99.90;;;;;;5051480;28;20402;-64
2023/08/04 10:24:04;;;;;;;4.57;1.88;;;20.80;99.90;;;;;;5050827;28;20041;-60
2023/08/04 10:26:35;;;;;;;7.47;1.98;;;20.80;99.90;;;;;;5050777;28;20104;-61
2023/08/04 10:29:04;;;;;;;4.00;1.95;;;20.60;99.90;;;;;;5051030;28;20028;-61
2023/08/04 10:31:51;;;;;;;5.57;1.85;;;20.50;99.90;;;;;;5050993;28;20037;-61
2023/08/04 10:34:24;;;;;;;5.05;2.03;;;20.40;99.90;;;;;;5050996;28;20025;-60
2023/08/04 10:37:17;;;;;;;5.60;2.17;;;20.30;99.90;;;;;;5050830;28;20444;-61
2023/08/04 10:39:48;;;;;;;4.22;2.00;;;20.20;99.90;;;;;;5048211;28;20045;-61
2023/08/04 10:42:20;;;;;;;5.95;1.95;;;20.00;99.90;;;;;;5050955;28;20036;-61
2023/08/04 10:45:07;;;;;;;5.90;1.98;;;20.00;99.90;;;;;;5051002;28;20118;-61
2023/08/04 10:47:38;;;;;;;7.95;2.30;;;20.10;99.90;;;;;;5051014;28;20513;-61
2023/08/04 10:50:05;;;;;;;5.97;2.20;;;20.10;99.90;;;;;;5051394;28;20028;-61
2023/08/04 10:52:32;;;;;;;6.85;2.00;;;20.20;99.90;;;;;;5050840;28;20049;-61
2023/08/04 10:54:58;;;;;;;5.40;2.00;;;20.10;99.90;;;;;;5050598;28;20029;-61
2023/08/04 10:57:27;;;;;;;7.75;2.15;;;20.20;99.90;;;;;;5050629;28;20021;-61
2023/08/04 10:59:54;;;;;;;4.78;2.15;;;20.20;99.90;;;;;;5050962;28;20383;-61
2023/08/04 11:02:21;;;;;;;8.35;2.10;;;20.40;99.90;;;;;;5054663;28;20021;-61
2023/08/04 11:04:47;;;;;;;6.10;2.08;;;20.60;99.90;;;;;;5054663;28;20025;-61
2023/08/04 11:07:14;;;;;;;6.38;2.00;;;20.80;99.90;;;;;;5054489;28;20040;-61
2023/08/04 11:09:41;;;;;;;4.60;2.35;;;20.90;99.90;;;;;;5054410;28;20031;-60
2023/08/04 11:12:08;;;;;;;6.25;2.13;;;21.00;99.90;;;;;;5054530;28;20421;-61
2023/08/04 11:14:37;;;;;;;5.75;2.05;;;21.00;99.90;;;;;;5054391;28;20120;-61
2023/08/04 11:17:11;;;;;;;4.80;2.10;;;21.20;99.90;;;;;;5054862;28;20029;-60
2023/08/04 11:19:37;;;;;;;3.80;1.70;;;21.50;99.90;;;;;;5054317;28;20032;-61
2023/08/04 11:22:13;;;;;;;4.00;1.83;;;21.40;99.90;;;;;;5054180;28;20021;-61
2023/08/04 11:24:40;;;;;;;3.78;1.90;;;21.20;99.90;;;;;;5053869;28;20044;-61
2023/08/04 11:27:07;;;;;;;5.25;2.20;;;21.20;99.90;;;;;;5054425;28;20474;-61
2023/08/04 11:29:32;;;;;;;5.55;2.00;;;21.40;99.90;;;;;;5054538;28;20486;-60
2023/08/04 11:31:58;;;;;;;4.35;1.77;;;21.50;99.90;;;;;;5054241;28;20040;-61
2023/08/04 11:34:24;;;;;;;3.53;1.58;;;21.30;99.90;;;;;;5054146;28;20040;-61
2023/08/04 11:36:50;;;;;;;4.55;2.05;;;21.10;99.90;;;;;;5053833;28;20048;-60
2023/08/04 11:39:15;;;;;;;7.93;2.22;;;21.00;99.90;;;;;;5054121;28;20099;-61
2023/08/04 11:41:44;;;;;;;4.53;1.88;;;20.90;99.90;;;;;;5053941;28;20036;-61
2023/08/04 11:44:10;;;;;;;4.80;1.90;;;20.90;99.90;;;;;;5053920;28;20465;-61
2023/08/04 11:46:36;;;;;;;5.30;1.73;;;20.70;99.90;;;;;;5054268;28;20035;-61
2023/08/04 11:49:04;;;;;;;5.38;2.10;;;20.80;99.90;;;;;;5053825;28;20029;-61
2023/08/04 11:51:30;;;;;;;5.18;2.28;;;20.90;99.90;;;;;;5053768;28;20043;-61
2023/08/04 11:53:56;;;;;;;5.85;1.95;;;21.00;99.90;;;;;;5053784;28;20023;-61
2023/08/04 11:56:21;;;;;;;4.38;1.85;;;21.00;99.90;;;;;;5053850;28;20021;-61
2023/08/04 11:58:50;;;;;;;3.15;1.63;;;21.00;99.90;;;;;;5053670;28;20027;-61
2023/08/04 12:01:34;;;;;;;5.82;1.77;;;20.90;99.90;;;;;;5053581;28;20064;-61
2023/08/04 12:04:00;;;;;;;4.43;1.92;;;20.90;99.90;;;;;;5053507;28;20035;-61
2023/08/04 12:06:29;;;;;;;4.22;1.90;;;20.70;99.90;;;;;;5053189;28;20124;-61
2023/08/04 12:09:00;;;;;;;3.53;1.50;;;20.60;99.90;;;;;;5053493;28;20032;-61
2023/08/04 12:11:27;;;;;;;3.95;1.60;;;20.80;99.90;;;;;;5052931;28;20086;-61
2023/08/04 12:14:05;;;;;;;4.25;1.92;;;20.80;99.90;;;;;;5053703;28;20049;-61
2023/08/04 12:16:31;;;;;;;3.15;1.58;;;20.90;99.90;;;;;;5053390;28;20025;-60
2023/08/04 12:19:06;;;;;;;4.80;1.88;;;21.00;99.90;;;;;;5053306;28;20017;-62
2023/08/04 12:21:31;;;;;;;3.38;1.63;;;21.20;99.90;;;;;;5053140;28;20041;-62
2023/08/04 12:23:57;;;;;;;4.30;1.67;;;21.40;99.90;;;;;;5053182;28;20072;-61
2023/08/04 12:26:23;;;;;;;4.00;1.70;;;21.60;99.90;;;;;;5053220;28;20095;-61
2023/08/04 12:28:48;;;;;;;3.30;1.60;;;21.60;99.90;;;;;;5053041;28;20547;-61
2023/08/04 12:31:14;;;;;;;3.70;1.75;;;21.80;99.90;;;;;;5053532;28;20029;-60
2023/08/04 12:33:40;;;;;;;4.63;1.63;;;21.80;99.90;;;;;;5053118;28;20071;-61
2023/08/04 12:36:06;;;;;;;5.13;1.67;;;21.80;99.90;;;;;;5052589;28;20048;-61
2023/08/04 12:38:31;;;;;;;4.40;1.80;;;21.90;99.90;;;;;;5053025;28;20029;-61
2023/08/04 12:40:57;;;;;;;4.35;2.00;;;21.80;99.90;;;;;;5052729;28;20498;-61
2023/08/04 12:43:23;;;;;;;4.53;1.65;;;21.90;99.90;;;;;;5052771;28;20040;-63